Sutton-in-Ashfield, United Kingdom
Current Conditions -  °F | °C
As of 3:50 AM on Thursday 23 Oct 2014 (Local Time) from EGNX Reporting Station
Scattered Clouds Scattered Clouds  
Wind Chill: 54°   Ceiling: Unl
Heat Index: 54°   Visibility: 6mi
Dew Point: 46°   Wind: 13mph
Humidity: 77%   Direction: 220°SW
Pressure: 30.06"   Gusts: NA
Location:  53.11°N, 1.25°W
Report Text: EGNX 230250Z 22011KT 9999 SCT025 12/08 Q1018
Loading
Personal Weather Stations






























Interactive Weather Map
Tropical Storm Tracking
New forecast layout! Learn more

10-Day Weather Forecast

Advertisements
Track Severe Weather on mobile